Time;durP1;ratioP1;P1;durP2;ratioP2;P2;SDS_P1;SDS_P2;PMS_P1;PMS_P2;Temp;Humidity;BMP_temperature;BMP_pressure;BME280_temperature;BME280_humidity;BME280_pressure;Samples;Min_cycle;Max_cycle;Signal;HPM_P1;HPM_P2
2024/01/03 00:00:56;;;;;;;;;;;;;;;18.85;61.88;98358.72;2081527;28;19932;-64
2024/01/03 00:01:59;;;;;;;;;;;;;;;18.85;61.77;98364.09;2081601;28;20299;-64
2024/01/03 00:03:00;;;;;;;;;;;;;;;18.85;61.62;98365.97;2088765;28;19972;-64
2024/01/03 00:04:01;;;;;;;;;;;;;;;18.85;61.67;98369.47;2082143;28;19929;-64
2024/01/03 00:05:03;;;;;;;;;;;;;;;18.87;61.61;98366.59;2083090;28;20384;-63
2024/01/03 00:06:04;;;;;;;;;;;;;;;18.87;61.81;98370.09;2078974;28;19968;-63
2024/01/03 00:07:06;;;;;;;;;;;;;;;18.87;61.75;98369.28;2081063;28;19931;-63
2024/01/03 00:08:11;;;;;;;;;;;;;;;18.85;61.60;98364.09;2079773;28;19936;-62
2024/01/03 00:09:13;;;;;;;;;;;;;;;18.86;61.59;98364.91;2080395;28;20474;-63
2024/01/03 00:10:23;;;;;;;;;;;;;;;18.85;61.64;98364.09;2078567;28;19936;-61
2024/01/03 00:11:28;;;;;;;;;;;;;;;18.85;61.86;98361.41;2080636;28;19937;-64
2024/01/03 00:12:29;;;;;;;;;;;;;;;18.85;61.92;98360.59;2079004;28;19933;-63
2024/01/03 00:13:54;;;;;;;;;;;;;;;18.87;61.73;98361.22;2081407;28;19996;-63
2024/01/03 00:14:55;;;;;;;;;;;;;;;18.86;61.84;98359.53;2079984;28;19931;-64
2024/01/03 00:16:14;;;;;;;;;;;;;;;18.84;61.96;98357.06;2077141;28;20027;-61
2024/01/03 00:17:18;;;;;;;;;;;;;;;18.83;61.70;98358.09;2076946;28;19932;-64
2024/01/03 00:18:29;;;;;;;;;;;;;;;18.85;61.57;98353.34;2081419;28;20426;-64
2024/01/03 00:19:29;;;;;;;;;;;;;;;18.83;61.91;98355.41;2079161;28;19929;-62
2024/01/03 00:20:31;;;;;;;;;;;;;;;18.84;61.71;98357.06;2080918;28;19929;-63
2024/01/03 00:21:33;;;;;;;;;;;;;;;18.84;61.58;98357.06;2078971;28;19929;-64
2024/01/03 00:22:34;;;;;;;;;;;;;;;18.83;61.59;98355.41;2081766;28;19928;-64
2024/01/03 00:23:36;;;;;;;;;;;;;;;18.83;61.87;98354.59;2079031;28;19929;-63
2024/01/03 00:24:45;;;;;;;;;;;;;;;18.82;61.79;98348.41;2081032;28;19929;-63
2024/01/03 00:25:46;;;;;;;;;;;;;;;18.82;61.47;98352.94;2081160;28;20498;-63
2024/01/03 00:26:47;;;;;;;;;;;;;;;18.82;61.82;98345.72;2081318;28;19963;-64
2024/01/03 00:27:48;;;;;;;;;;;;;;;18.83;61.68;98354.59;2081189;28;19929;-64
2024/01/03 00:28:49;;;;;;;;;;;;;;;18.82;61.63;98342.19;2081377;28;20013;-65
2024/01/03 00:29:54;;;;;;;;;;;;;;;18.82;61.58;98328.78;2082031;28;19924;-64
2024/01/03 00:30:55;;;;;;;;;;;;;;;18.82;61.81;98326.09;2082220;28;19924;-63
2024/01/03 00:31:57;;;;;;;;;;;;;;;18.82;61.95;98326.91;2078305;28;19986;-64
2024/01/03 00:32:59;;;;;;;;;;;;;;;18.81;61.88;98335.19;2080426;28;19933;-64
2024/01/03 00:34:00;;;;;;;;;;;;;;;18.79;61.88;98345.31;2077732;28;19925;-61
2024/01/03 00:35:01;;;;;;;;;;;;;;;18.80;61.60;98339.72;2078635;28;19932;-61
2024/01/03 00:36:03;;;;;;;;;;;;;;;18.80;61.72;98330.84;2080995;28;20019;-62
2024/01/03 00:37:07;;;;;;;;;;;;;;;18.81;61.88;98332.50;2083992;28;19932;-63
2024/01/03 00:38:09;;;;;;;;;;;;;;;18.80;61.96;98325.47;2082191;28;19933;-64
2024/01/03 00:39:11;;;;;;;;;;;;;;;18.78;61.94;98324.84;2080934;28;20354;-64
2024/01/03 00:40:36;;;;;;;;;;;;;;;18.82;61.64;98331.44;2077279;28;19990;-63
2024/01/03 00:41:37;;;;;;;;;;;;;;;18.80;61.94;98328.16;2082202;28;19931;-65
2024/01/03 00:42:38;;;;;;;;;;;;;;;18.81;61.59;98325.25;2084283;28;20339;-62
2024/01/03 00:43:39;;;;;;;;;;;;;;;18.81;61.76;98325.25;2080079;28;19928;-63
2024/01/03 00:44:40;;;;;;;;;;;;;;;18.80;61.59;98328.97;2082268;28;19972;-64
2024/01/03 00:45:41;;;;;;;;;;;;;;;18.81;61.76;98325.25;2078849;28;19925;-62
2024/01/03 00:46:42;;;;;;;;;;;;;;;18.81;61.87;98327.94;2083270;28;19925;-64
2024/01/03 00:47:44;;;;;;;;;;;;;;;18.81;61.54;98327.94;2078735;28;20315;-63
2024/01/03 00:48:46;;;;;;;;;;;;;;;18.81;61.75;98317.19;2083332;28;19925;-64
2024/01/03 00:49:47;;;;;;;;;;;;;;;18.81;61.79;98308.31;2078939;28;20062;-64
2024/01/03 00:50:50;;;;;;;;;;;;;;;18.80;61.58;98307.47;2081937;28;19928;-63
2024/01/03 00:51:50;;;;;;;;;;;;;;;18.80;61.66;98309.34;2080709;28;19936;-63
2024/01/03 00:52:52;;;;;;;;;;;;;;;18.80;61.90;98304.78;2081486;28;20040;-63
2024/01/03 00:53:53;;;;;;;;;;;;;;;18.81;61.64;98302.94;2081115;28;19940;-63
2024/01/03 00:54:54;;;;;;;;;;;;;;;18.81;61.76;98302.94;2080147;28;20015;-64
2024/01/03 00:55:55;;;;;;;;;;;;;;;18.81;61.81;98305.63;2082375;28;19928;-63
2024/01/03 00:56:58;;;;;;;;;;;;;;;18.80;61.90;98318.22;2083627;28;20492;-64
2024/01/03 00:57:59;;;;;;;;;;;;;;;18.80;61.53;98302.09;2081913;28;20336;-63
2024/01/03 00:59:00;;;;;;;;;;;;;;;18.82;61.55;98297.34;2081595;28;19929;-61
2024/01/03 01:00:02;;;;;;;;;;;;;;;18.83;61.47;98301.66;2084619;28;19929;-62
2024/01/03 01:01:03;;;;;;;;;;;;;;;18.83;61.44;98307.03;2081105;28;19925;-62
2024/01/03 01:02:05;;;;;;;;;;;;;;;18.82;61.42;98300.03;2081812;28;19929;-62
2024/01/03 01:03:05;;;;;;;;;;;;;;;18.82;61.64;98301.91;2080710;28;19929;-61
2024/01/03 01:04:07;;;;;;;;;;;;;;;18.83;61.66;98300.84;2078965;28;19968;-64
2024/01/03 01:05:09;;;;;;;;;;;;;;;18.84;61.66;98306.03;2083517;28;20585;-63
2024/01/03 01:06:10;;;;;;;;;;;;;;;18.85;61.63;98304.16;2081794;28;19925;-64
2024/01/03 01:07:12;;;;;;;;;;;;;;;18.85;61.68;98306.84;2083090;28;19933;-63
2024/01/03 01:08:13;;;;;;;;;;;;;;;18.86;61.62;98311.16;2079006;28;19963;-63
2024/01/03 01:09:13;;;;;;;;;;;;;;;18.85;61.74;98314.91;2080802;28;19929;-61
2024/01/03 01:10:15;;;;;;;;;;;;;;;18.84;61.74;98308.72;2082714;28;19935;-62
2024/01/03 01:11:15;;;;;;;;;;;;;;;18.85;61.53;98309.53;2079688;28;20392;-63
2024/01/03 01:12:17;;;;;;;;;;;;;;;18.84;61.78;98308.72;2081959;28;20123;-62
2024/01/03 01:13:18;;;;;;;;;;;;;;;18.83;61.48;98309.72;2078925;28;19925;-64
2024/01/03 01:14:18;;;;;;;;;;;;;;;18.81;61.44;98311.81;2079717;28;19971;-63
2024/01/03 01:15:20;;;;;;;;;;;;;;;18.83;61.66;98306.22;2079953;28;20419;-64
2024/01/03 01:16:21;;;;;;;;;;;;;;;18.83;61.78;98312.41;2082191;28;19943;-64
2024/01/03 01:17:22;;;;;;;;;;;;;;;18.84;61.71;98316.78;2080682;28;19961;-63
2024/01/03 01:18:23;;;;;;;;;;;;;;;18.85;61.51;98309.53;2081133;28;20005;-63
2024/01/03 01:19:26;;;;;;;;;;;;;;;18.86;61.61;98306.66;2083418;28;19933;-64
2024/01/03 01:20:26;;;;;;;;;;;;;;;18.86;61.60;98305.78;2080165;28;19951;-63
2024/01/03 01:21:28;;;;;;;;;;;;;;;18.85;61.63;98310.34;2079594;28;20634;-63
2024/01/03 01:22:29;;;;;;;;;;;;;;;18.85;61.42;98304.97;2080953;28;20662;-64
2024/01/03 01:23:30;;;;;;;;;;;;;;;18.85;61.38;98312.22;2081928;28;20011;-63
2024/01/03 01:24:31;;;;;;;;;;;;;;;18.84;61.40;98308.72;2083287;28;20293;-62
2024/01/03 01:25:32;;;;;;;;;;;;;;;18.86;61.56;98311.16;2079369;28;20013;-63
2024/01/03 01:26:33;;;;;;;;;;;;;;;18.85;61.69;98309.53;2079540;28;19929;-64
2024/01/03 01:27:34;;;;;;;;;;;;;;;18.85;61.67;98304.97;2082111;28;20058;-64
2024/01/03 01:28:35;;;;;;;;;;;;;;;18.85;61.51;98310.34;2082553;28;19964;-64
2024/01/03 01:29:36;;;;;;;;;;;;;;;18.85;61.79;98302.28;2081895;28;20295;-61
2024/01/03 01:30:37;;;;;;;;;;;;;;;18.86;61.72;98300.41;2082138;28;20024;-63
2024/01/03 01:31:39;;;;;;;;;;;;;;;18.86;61.77;98303.97;2080688;28;19935;-62
2024/01/03 01:32:40;;;;;;;;;;;;;;;18.86;61.35;98297.72;2081807;28;20016;-64
2024/01/03 01:33:41;;;;;;;;;;;;;;;18.83;61.55;98298.16;2081659;28;20387;-63
2024/01/03 01:34:43;;;;;;;;;;;;;;;18.86;61.76;98295.03;2088588;28;19951;-64
2024/01/03 01:35:45;;;;;;;;;;;;;;;18.85;61.52;98304.16;2087650;28;20839;-63
2024/01/03 01:36:45;;;;;;;;;;;;;;;18.84;61.67;98297.97;2087716;28;19925;-62
2024/01/03 01:37:48;;;;;;;;;;;;;;;18.85;61.50;98309.53;2085931;28;20562;-64
2024/01/03 01:38:48;;;;;;;;;;;;;;;18.82;61.69;98304.59;2088822;28;19999;-63
2024/01/03 01:39:50;;;;;;;;;;;;;;;18.80;61.85;98307.47;2088236;28;19955;-63
2024/01/03 01:40:51;;;;;;;;;;;;;;;18.83;61.72;98312.41;2087714;28;20327;-63
2024/01/03 01:41:52;;;;;;;;;;;;;;;18.82;61.79;98309.97;2088298;28;19959;-63
2024/01/03 01:42:53;;;;;;;;;;;;;;;18.82;61.83;98316.16;2088552;28;19924;-64
2024/01/03 01:43:54;;;;;;;;;;;;;;;18.82;61.48;98312.66;2088834;28;19964;-62
2024/01/03 01:44:55;;;;;;;;;;;;;;;18.81;61.67;98311.81;2086760;28;19928;-64
2024/01/03 01:45:58;;;;;;;;;;;;;;;18.80;61.83;98299.41;2089922;28;20475;-63
2024/01/03 01:46:58;;;;;;;;;;;;;;;18.81;61.83;98303.78;2088156;28;20307;-64
2024/01/03 01:48:00;;;;;;;;;;;;;;;18.80;61.74;98294.03;2088157;28;20011;-65
2024/01/03 01:49:01;;;;;;;;;;;;;;;18.79;61.52;98295.09;2086475;28;19932;-65
2024/01/03 01:50:03;;;;;;;;;;;;;;;18.80;61.56;98288.66;2090359;28;20388;-64
2024/01/03 01:51:06;;;;;;;;;;;;;;;18.78;61.56;98292.59;2085263;28;19925;-64
2024/01/03 01:52:07;;;;;;;;;;;;;;;18.80;61.49;98294.03;2087010;28;19936;-64
2024/01/03 01:53:09;;;;;;;;;;;;;;;18.77;61.69;98296.34;2089581;28;19982;-64
2024/01/03 01:54:10;;;;;;;;;;;;;;;18.77;61.61;98286.41;2085581;28;20004;-63
2024/01/03 01:55:12;;;;;;;;;;;;;;;18.78;61.48;98287.22;2090549;28;19935;-64
2024/01/03 01:56:13;;;;;;;;;;;;;;;18.77;61.71;98280.22;2085727;28;19932;-63
2024/01/03 01:57:15;;;;;;;;;;;;;;;18.77;61.57;98278.34;2092213;28;19975;-61
2024/01/03 01:58:16;;;;;;;;;;;;;;;18.78;61.60;98277.31;2085962;28;19940;-64
2024/01/03 01:59:20;;;;;;;;;;;;;;;18.77;61.63;98281.03;2090633;28;19978;-64
2024/01/03 02:00:21;;;;;;;;;;;;;;;18.75;61.58;98281.25;2089371;28;19925;-62
2024/01/03 02:01:23;;;;;;;;;;;;;;;18.75;61.43;98283.94;2090264;28;19975;-64
2024/01/03 02:02:23;;;;;;;;;;;;;;;18.77;61.50;98283.72;2088018;28;19933;-64
2024/01/03 02:03:24;;;;;;;;;;;;;;;18.78;61.63;98276.47;2087414;28;20028;-64
2024/01/03 02:04:26;;;;;;;;;;;;;;;18.78;61.61;98280.00;2086089;28;20599;-64
2024/01/03 02:05:28;;;;;;;;;;;;;;;18.80;61.42;98275.22;2088969;28;19929;-64
2024/01/03 02:06:30;;;;;;;;;;;;;;;18.80;61.47;98269.03;2090043;28;19924;-64
2024/01/03 02:07:31;;;;;;;;;;;;;;;18.79;61.33;98272.78;2089224;28;19951;-62
2024/01/03 02:08:34;;;;;;;;;;;;;;;18.79;61.37;98268.22;2089264;28;19974;-63
2024/01/03 02:09:35;;;;;;;;;;;;;;;18.78;61.75;98263.91;2089464;28;21028;-64
2024/01/03 02:10:37;;;;;;;;;;;;;;;18.77;61.44;98270.28;2090670;28;19932;-64
2024/01/03 02:11:43;;;;;;;;;;;;;;;18.79;61.57;98270.91;2090336;28;19928;-64
2024/01/03 02:12:44;;;;;;;;;;;;;;;18.78;61.41;98265.72;2086830;28;19946;-64
2024/01/03 02:13:46;;;;;;;;;;;;;;;18.79;61.51;98268.22;2088578;28;19940;-64
2024/01/03 02:14:47;;;;;;;;;;;;;;;18.78;61.51;98261.22;2088737;28;19935;-63
2024/01/03 02:15:48;;;;;;;;;;;;;;;18.79;61.69;98252.09;2087975;28;19929;-64
2024/01/03 02:16:49;;;;;;;;;;;;;;;18.80;61.37;98255.59;2090963;28;19966;-62
2024/01/03 02:17:51;;;;;;;;;;;;;;;18.80;61.43;98253.72;2089036;28;20314;-64
2024/01/03 02:18:53;;;;;;;;;;;;;;;18.78;61.73;98242.41;2090962;28;20491;-61
2024/01/03 02:19:53;;;;;;;;;;;;;;;18.78;61.45;98236.19;2089972;28;19925;-64
2024/01/03 02:20:56;;;;;;;;;;;;;;;18.78;61.67;98245.09;2087024;28;19983;-63
2024/01/03 02:22:00;;;;;;;;;;;;;;;18.79;61.64;98233.28;2089850;28;20031;-63
2024/01/03 02:23:00;;;;;;;;;;;;;;;18.80;61.63;98236.78;2091569;28;19924;-65
2024/01/03 02:24:02;;;;;;;;;;;;;;;18.81;61.60;98233.09;2088508;28;20020;-62
2024/01/03 02:25:04;;;;;;;;;;;;;;;18.82;61.27;98218.59;2086967;28;20585;-63
2024/01/03 02:26:05;;;;;;;;;;;;;;;18.82;61.18;98222.13;2087227;28;19960;-64
2024/01/03 02:27:06;;;;;;;;;;;;;;;18.84;61.32;98219.22;2089167;28;19955;-63
2024/01/03 02:28:09;;;;;;;;;;;;;;;18.84;61.25;98224.59;2088875;28;20034;-64
2024/01/03 02:29:11;;;;;;;;;;;;;;;18.84;61.31;98222.72;2087073;28;20443;-62
2024/01/03 02:30:12;;;;;;;;;;;;;;;18.84;61.51;98225.41;2089320;28;20026;-63
2024/01/03 02:31:13;;;;;;;;;;;;;;;18.83;61.52;98223.75;2085765;28;19929;-64
2024/01/03 02:32:14;;;;;;;;;;;;;;;18.85;61.52;98226.22;2090393;28;19925;-64
2024/01/03 02:33:16;;;;;;;;;;;;;;;18.85;61.52;98223.53;2084652;28;21169;-64
2024/01/03 02:34:17;;;;;;;;;;;;;;;18.83;61.68;98231.81;2088436;28;19976;-62
2024/01/03 02:35:18;;;;;;;;;;;;;;;18.84;61.49;98233.47;2085944;28;20310;-62
2024/01/03 02:36:19;;;;;;;;;;;;;;;18.82;61.48;98238.22;2089552;28;19933;-61
2024/01/03 02:37:22;;;;;;;;;;;;;;;18.84;61.36;98232.66;2088356;28;19925;-62
2024/01/03 02:38:23;;;;;;;;;;;;;;;18.83;61.33;98225.63;2087247;28;19931;-64
2024/01/03 02:39:24;;;;;;;;;;;;;;;18.83;61.35;98220.25;2087955;28;19935;-62
2024/01/03 02:40:25;;;;;;;;;;;;;;;18.83;61.35;98215.69;2091372;28;20287;-63
2024/01/03 02:41:27;;;;;;;;;;;;;;;18.81;61.42;98212.41;2087959;28;19933;-62
2024/01/03 02:42:27;;;;;;;;;;;;;;;18.83;61.62;98231.81;2088548;28;19932;-62
2024/01/03 02:43:30;;;;;;;;;;;;;;;18.83;61.46;98231.00;2084235;28;19964;-62
2024/01/03 02:44:30;;;;;;;;;;;;;;;18.82;61.57;98226.66;2085482;28;20004;-63
2024/01/03 02:45:32;;;;;;;;;;;;;;;18.83;61.43;98215.69;2085881;28;19972;-63
2024/01/03 02:46:32;;;;;;;;;;;;;;;18.82;61.65;98216.75;2083449;28;19948;-64
2024/01/03 02:47:34;;;;;;;;;;;;;;;18.82;61.48;98219.41;2089559;28;19925;-63
2024/01/03 02:48:38;;;;;;;;;;;;;;;18.82;61.39;98219.41;2089194;28;19929;-64
2024/01/03 02:49:39;;;;;;;;;;;;;;;18.81;61.37;98216.97;2088345;28;19936;-63
2024/01/03 02:50:44;;;;;;;;;;;;;;;18.82;61.37;98218.59;2092130;28;19949;-64
2024/01/03 02:51:45;;;;;;;;;;;;;;;18.81;61.59;98212.41;2089381;28;19978;-61
2024/01/03 02:52:47;;;;;;;;;;;;;;;18.80;61.66;98220.69;2088572;28;21189;-63
2024/01/03 02:53:49;;;;;;;;;;;;;;;18.80;61.69;98218.81;2088396;28;19932;-64
2024/01/03 02:54:49;;;;;;;;;;;;;;;18.80;61.37;98226.03;2087240;28;19928;-62
2024/01/03 02:55:51;;;;;;;;;;;;;;;18.79;61.42;98225.22;2086137;28;19972;-63
2024/01/03 02:56:53;;;;;;;;;;;;;;;18.83;61.52;98222.94;2089260;28;19936;-63
2024/01/03 02:57:55;;;;;;;;;;;;;;;18.81;61.57;98220.47;2089687;28;19933;-65
2024/01/03 02:58:55;;;;;;;;;;;;;;;18.83;61.30;98218.38;2090583;28;19928;-63
2024/01/03 02:59:57;;;;;;;;;;;;;;;18.81;61.32;98212.41;2090881;28;20008;-64
2024/01/03 03:00:57;;;;;;;;;;;;;;;18.82;61.14;98211.38;2087070;28;19939;-63
2024/01/03 03:01:59;;;;;;;;;;;;;;;18.84;61.18;98208.47;2088737;28;19995;-62
2024/01/03 03:03:00;;;;;;;;;;;;;;;18.83;61.34;98212.19;2089199;28;19983;-64
2024/01/03 03:04:02;;;;;;;;;;;;;;;18.85;61.52;98218.16;2083506;28;19936;-63
2024/01/03 03:05:03;;;;;;;;;;;;;;;18.83;61.59;98226.44;2087578;28;19940;-63
2024/01/03 03:06:04;;;;;;;;;;;;;;;18.84;61.18;98221.91;2085019;28;19928;-64
2024/01/03 03:07:05;;;;;;;;;;;;;;;18.84;61.21;98220.03;2088210;28;21812;-63
2024/01/03 03:08:08;;;;;;;;;;;;;;;18.84;61.23;98217.34;2086527;28;20035;-64
2024/01/03 03:09:09;;;;;;;;;;;;;;;18.84;61.52;98211.16;2086302;28;19932;-63
2024/01/03 03:10:12;;;;;;;;;;;;;;;18.83;61.44;98209.50;2088867;28;19975;-63
2024/01/03 03:11:12;;;;;;;;;;;;;;;18.83;61.60;98207.63;2085612;28;19936;-63
2024/01/03 03:12:14;;;;;;;;;;;;;;;18.84;61.39;98203.09;2086167;28;20055;-64
2024/01/03 03:13:16;;;;;;;;;;;;;;;18.84;61.59;98190.47;2088902;28;19960;-63
2024/01/03 03:14:18;;;;;;;;;;;;;;;18.83;61.47;98183.44;2086943;28;19956;-63
2024/01/03 03:15:18;;;;;;;;;;;;;;;18.83;61.45;98182.63;2085078;28;19932;-64
2024/01/03 03:16:20;;;;;;;;;;;;;;;18.83;61.22;98180.75;2089241;28;19960;-64
2024/01/03 03:17:21;;;;;;;;;;;;;;;18.83;61.62;98183.44;2089834;28;19976;-64
2024/01/03 03:18:22;;;;;;;;;;;;;;;18.81;61.51;98180.16;2087437;28;20605;-64
2024/01/03 03:19:23;;;;;;;;;;;;;;;18.82;61.52;98181.00;2090464;28;19936;-62
2024/01/03 03:20:25;;;;;;;;;;;;;;;18.83;61.44;98164.63;2087045;28;19928;-63
2024/01/03 03:21:25;;;;;;;;;;;;;;;18.81;61.34;98163.22;2084572;28;19975;-62
2024/01/03 03:22:27;;;;;;;;;;;;;;;18.79;61.73;98155.38;2086749;28;19963;-62
2024/01/03 03:23:29;;;;;;;;;;;;;;;18.79;61.58;98150.00;2086241;28;19932;-63
2024/01/03 03:24:30;;;;;;;;;;;;;;;18.80;61.34;98151.63;2085639;28;19928;-63
2024/01/03 03:25:31;;;;;;;;;;;;;;;18.78;61.39;98151.06;2089620;28;20310;-64
2024/01/03 03:26:31;;;;;;;;;;;;;;;18.79;61.41;98150.00;2089407;28;20011;-62
2024/01/03 03:27:33;;;;;;;;;;;;;;;18.75;61.51;98144.25;2089862;28;19931;-62
2024/01/03 03:28:34;;;;;;;;;;;;;;;18.78;61.31;98148.38;2086094;28;19929;-65
2024/01/03 03:29:35;;;;;;;;;;;;;;;18.78;61.59;98151.06;2087658;28;19963;-62
2024/01/03 03:30:36;;;;;;;;;;;;;;;18.80;61.55;98151.63;2088945;28;19931;-63
2024/01/03 03:31:36;;;;;;;;;;;;;;;18.78;61.60;98159.13;2085813;28;20430;-63
2024/01/03 03:32:38;;;;;;;;;;;;;;;18.79;61.34;98168.81;2087384;28;19936;-62
2024/01/03 03:33:39;;;;;;;;;;;;;;;18.80;61.34;98172.31;2088263;28;19924;-63
2024/01/03 03:34:40;;;;;;;;;;;;;;;18.77;61.54;98173.56;2084970;28;20011;-64
2024/01/03 03:35:41;;;;;;;;;;;;;;;18.76;61.63;98174.63;2086016;28;19925;-63
2024/01/03 03:36:42;;;;;;;;;;;;;;;18.77;61.27;98173.56;2089447;28;19976;-64
2024/01/03 03:37:43;;;;;;;;;;;;;;;18.78;61.53;98177.91;2086645;28;19944;-62
2024/01/03 03:38:46;;;;;;;;;;;;;;;18.81;61.42;98185.53;2089900;28;20383;-63
2024/01/03 03:39:47;;;;;;;;;;;;;;;18.80;61.36;98191.13;2090527;28;19932;-63
2024/01/03 03:40:49;;;;;;;;;;;;;;;18.80;61.60;98194.63;2090417;28;19924;-63
2024/01/03 03:41:49;;;;;;;;;;;;;;;18.80;61.38;98197.31;2087664;28;20347;-64
2024/01/03 03:42:51;;;;;;;;;;;;;;;18.84;61.45;98193.16;2087590;28;19971;-61
2024/01/03 03:43:51;;;;;;;;;;;;;;;18.83;61.53;98188.81;2087584;28;19933;-64
2024/01/03 03:44:54;;;;;;;;;;;;;;;18.84;61.22;98189.66;2089251;28;19967;-64
2024/01/03 03:45:55;;;;;;;;;;;;;;;18.82;61.55;98175.63;2086438;28;20442;-62
2024/01/03 03:46:57;;;;;;;;;;;;;;;18.84;61.14;98177.06;2086261;28;19975;-64
2024/01/03 03:47:57;;;;;;;;;;;;;;;18.85;61.17;98169.81;2085530;28;19936;-64
2024/01/03 03:48:59;;;;;;;;;;;;;;;18.85;61.27;98172.50;2085307;28;19968;-64
2024/01/03 03:49:59;;;;;;;;;;;;;;;18.83;61.21;98167.31;2088584;28;19943;-64
2024/01/03 03:51:01;;;;;;;;;;;;;;;18.86;61.13;98171.44;2091835;28;19975;-62
2024/01/03 03:52:02;;;;;;;;;;;;;;;18.83;61.39;98170.00;2089742;28;19948;-63
2024/01/03 03:53:10;;;;;;;;;;;;;;;18.83;61.55;98172.69;2085703;28;20630;-64
2024/01/03 03:54:12;;;;;;;;;;;;;;;18.85;61.50;98172.50;2087398;28;20460;-64
2024/01/03 03:55:14;;;;;;;;;;;;;;;18.83;61.18;98174.56;2086872;28;20388;-64
2024/01/03 03:56:20;;;;;;;;;;;;;;;18.83;61.17;98166.50;2084726;28;19929;-63
2024/01/03 03:57:22;;;;;;;;;;;;;;;18.83;61.29;98161.94;2086026;28;19932;-64
2024/01/03 03:58:22;;;;;;;;;;;;;;;18.85;61.46;98159.06;2086847;28;19935;-63
2024/01/03 03:59:24;;;;;;;;;;;;;;;18.84;61.22;98162.81;2087629;28;19968;-63
2024/01/03 04:00:25;;;;;;;;;;;;;;;18.83;61.33;98161.13;2091869;28;19931;-64
2024/01/03 04:01:26;;;;;;;;;;;;;;;18.82;61.45;98151.44;2087357;28;20019;-63
2024/01/03 04:02:27;;;;;;;;;;;;;;;18.82;61.35;98157.63;2092384;28;19925;-64
2024/01/03 04:03:28;;;;;;;;;;;;;;;18.82;61.45;98162.19;2090771;28;19964;-64
2024/01/03 04:04:29;;;;;;;;;;;;;;;18.82;61.20;98164.88;2087321;28;20391;-64
2024/01/03 04:05:30;;;;;;;;;;;;;;;18.82;61.13;98165.69;2090725;28;20015;-62
2024/01/03 04:06:31;;;;;;;;;;;;;;;18.81;61.25;98164.06;2090572;28;19932;-63
2024/01/03 04:07:33;;;;;;;;;;;;;;;18.80;61.30;98161.56;2088162;28;19968;-63
2024/01/03 04:08:33;;;;;;;;;;;;;;;18.81;61.40;98153.31;2091088;28;19947;-63
2024/01/03 04:09:37;;;;;;;;;;;;;;;18.80;61.49;98159.69;2090210;28;19963;-63
2024/01/03 04:10:37;;;;;;;;;;;;;;;18.79;61.47;98147.31;2093105;28;19932;-62
2024/01/03 04:11:42;;;;;;;;;;;;;;;18.77;61.67;98160.13;2090587;28;19928;-62
2024/01/03 04:12:42;;;;;;;;;;;;;;;18.78;61.39;98159.13;2092042;28;20438;-63
2024/01/03 04:13:44;;;;;;;;;;;;;;;18.78;61.30;98159.13;2088644;28;19964;-63
2024/01/03 04:14:45;;;;;;;;;;;;;;;18.78;61.47;98159.13;2088023;28;19932;-63
2024/01/03 04:15:46;;;;;;;;;;;;;;;18.77;61.51;98165.50;2089430;28;20011;-63
2024/01/03 04:16:47;;;;;;;;;;;;;;;18.78;61.33;98177.06;2090896;28;20013;-62
2024/01/03 04:17:47;;;;;;;;;;;;;;;18.76;61.52;98180.00;2085849;28;19928;-63
2024/01/03 04:18:49;;;;;;;;;;;;;;;18.77;61.50;98170.88;2091164;28;19929;-63
2024/01/03 04:19:50;;;;;;;;;;;;;;;18.77;61.46;98170.88;2087815;28;19956;-63
2024/01/03 04:20:51;;;;;;;;;;;;;;;18.76;61.43;98158.50;2087842;28;19933;-62
2024/01/03 04:21:52;;;;;;;;;;;;;;;18.72;61.21;98163.47;2089805;28;19928;-61
2024/01/03 04:22:54;;;;;;;;;;;;;;;18.75;61.33;98162.22;2088092;28;19928;-61
2024/01/03 04:23:54;;;;;;;;;;;;;;;18.75;61.49;98162.22;2089483;28;19933;-63
2024/01/03 04:24:57;;;;;;;;;;;;;;;18.75;61.53;98164.91;2085904;28;19972;-63
2024/01/03 04:25:58;;;;;;;;;;;;;;;18.78;61.41;98163.63;2091067;28;19955;-63
2024/01/03 04:26:58;;;;;;;;;;;;;;;18.77;61.49;98165.50;2089039;28;20408;-62
2024/01/03 04:28:00;;;;;;;;;;;;;;;18.78;61.31;98163.63;2090322;28;20075;-62
2024/01/03 04:29:01;;;;;;;;;;;;;;;18.79;61.13;98168.81;2084244;28;19929;-63
2024/01/03 04:30:01;;;;;;;;;;;;;;;18.78;61.16;98167.16;2091979;28;20863;-63
2024/01/03 04:31:03;;;;;;;;;;;;;;;18.80;61.14;98167.75;2084762;28;20293;-62
2024/01/03 04:32:07;;;;;;;;;;;;;;;18.81;61.31;98174.78;2089843;28;19924;-63
2024/01/03 04:33:08;;;;;;;;;;;;;;;18.81;61.02;98172.13;2085103;28;20722;-63
2024/01/03 04:34:09;;;;;;;;;;;;;;;18.84;61.10;98173.53;2091064;28;19933;-62
2024/01/03 04:35:10;;;;;;;;;;;;;;;18.85;61.28;98177.88;2087216;28;20319;-63
2024/01/03 04:36:12;;;;;;;;;;;;;;;18.85;61.11;98165.25;2089039;28;19933;-62
2024/01/03 04:37:13;;;;;;;;;;;;;;;18.86;61.27;98161.53;2088506;28;19924;-63
2024/01/03 04:38:14;;;;;;;;;;;;;;;18.87;61.11;98160.50;2091777;28;21471;-62
2024/01/03 04:39:16;;;;;;;;;;;;;;;18.87;61.21;98159.69;2087871;28;19928;-64
2024/01/03 04:40:19;;;;;;;;;;;;;;;18.87;61.01;98157.81;2087327;28;20011;-63
2024/01/03 04:41:19;;;;;;;;;;;;;;;18.87;60.99;98157.81;2088694;28;20003;-64
2024/01/03 04:42:20;;;;;;;;;;;;;;;18.85;61.31;98154.50;2089360;28;19932;-63
2024/01/03 04:43:22;;;;;;;;;;;;;;;18.86;61.19;98147.25;2087643;28;19932;-63
2024/01/03 04:44:22;;;;;;;;;;;;;;;18.87;61.01;98147.06;2087092;28;19950;-61
2024/01/03 04:45:24;;;;;;;;;;;;;;;18.86;61.10;98142.72;2090654;28;20024;-64
2024/01/03 04:46:24;;;;;;;;;;;;;;;18.88;61.30;98139.81;2089543;28;19932;-64
2024/01/03 04:47:26;;;;;;;;;;;;;;;18.87;61.05;98136.31;2087823;28;20028;-62
2024/01/03 04:48:27;;;;;;;;;;;;;;;18.88;61.11;98147.88;2087975;28;19936;-63
2024/01/03 04:49:29;;;;;;;;;;;;;;;18.87;61.16;98144.38;2084899;28;20575;-63
2024/01/03 04:50:29;;;;;;;;;;;;;;;18.88;61.39;98143.31;2090938;28;19929;-63
2024/01/03 04:51:31;;;;;;;;;;;;;;;18.88;61.18;98139.81;2088645;28;19944;-62
2024/01/03 04:52:31;;;;;;;;;;;;;;;18.87;61.13;98140.88;2088994;28;19924;-64
2024/01/03 04:53:33;;;;;;;;;;;;;;;18.87;61.12;98144.38;2088930;28;19929;-64
2024/01/03 04:54:34;;;;;;;;;;;;;;;18.86;61.36;98131.97;2086852;28;19924;-62
2024/01/03 04:55:37;;;;;;;;;;;;;;;18.86;61.18;98134.69;2087937;28;20043;-64
2024/01/03 04:56:37;;;;;;;;;;;;;;;18.86;61.23;98134.69;2084953;28;19933;-64
2024/01/03 04:57:38;;;;;;;;;;;;;;;18.85;61.16;98122.25;2088060;28;20395;-64
2024/01/03 04:58:40;;;;;;;;;;;;;;;18.84;60.93;98123.31;2088617;28;19932;-63
2024/01/03 04:59:40;;;;;;;;;;;;;;;18.85;61.17;98127.63;2088967;28;20482;-62
2024/01/03 05:00:42;;;;;;;;;;;;;;;18.85;61.21;98124.94;2089681;28;19979;-61
2024/01/03 05:01:42;;;;;;;;;;;;;;;18.83;60.96;98124.34;2088436;28;20720;-64
2024/01/03 05:02:43;;;;;;;;;;;;;;;18.85;61.11;98126.81;2086010;28;19928;-64
2024/01/03 05:03:45;;;;;;;;;;;;;;;18.84;61.15;98133.25;2088348;28;20062;-63
2024/01/03 05:04:45;;;;;;;;;;;;;;;18.85;61.00;98137.56;2087127;28;19939;-63
2024/01/03 05:05:47;;;;;;;;;;;;;;;18.85;61.42;98142.94;2088955;28;19968;-64
2024/01/03 05:06:50;;;;;;;;;;;;;;;18.82;61.44;98130.75;2081252;28;19936;-64
2024/01/03 05:07:54;;;;;;;;;;;;;;;18.83;61.09;98124.34;2086140;28;19933;-63
2024/01/03 05:08:54;;;;;;;;;;;;;;;18.82;61.03;98125.38;2090273;28;19924;-63
2024/01/03 05:09:56;;;;;;;;;;;;;;;18.81;61.31;98133.69;2089721;28;20348;-64
2024/01/03 05:10:58;;;;;;;;;;;;;;;18.82;61.37;98133.44;2087912;28;19963;-61
2024/01/03 05:11:59;;;;;;;;;;;;;;;18.81;61.11;98126.44;2085625;28;19933;-62
2024/01/03 05:13:00;;;;;;;;;;;;;;;18.81;61.16;98139.88;2086615;28;20602;-64
2024/01/03 05:14:02;;;;;;;;;;;;;;;18.82;61.14;98141.50;2088511;28;19978;-63
2024/01/03 05:15:02;;;;;;;;;;;;;;;18.80;61.23;98140.88;2081978;28;21783;-63
2024/01/03 05:16:04;;;;;;;;;;;;;;;18.82;61.37;98141.50;2089818;28;19929;-63
2024/01/03 05:17:05;;;;;;;;;;;;;;;18.80;61.05;98150.81;2089936;28;19954;-62
2024/01/03 05:18:07;;;;;;;;;;;;;;;18.80;61.22;98151.63;2088575;28;20006;-64
2024/01/03 05:19:07;;;;;;;;;;;;;;;18.81;61.21;98152.50;2088330;28;20391;-64
2024/01/03 05:20:09;;;;;;;;;;;;;;;18.80;61.10;98156.19;2088652;28;19968;-64
2024/01/03 05:21:10;;;;;;;;;;;;;;;18.80;61.24;98157.00;2091164;28;19936;-63
2024/01/03 05:22:12;;;;;;;;;;;;;;;18.81;61.40;98152.50;2087802;28;20028;-62